Kinnelon, New Jersey
Current Conditions -  °F | °C
As of 12:53 AM on Tuesday 27 Jan 2015 (Local Time) from KCDW Reporting Station
Light Snow Light Snow  
Wind Chill: 13°   Ceiling: 2000
Heat Index: 22°   Visibility: 1.5mi
Dew Point: 17°   Wind: 7mph
Humidity: 82%   Direction: NA
Pressure: 29.71"   Gusts: NA
Location:  40.9863°N, 74.383°W
Report Text: KCDW 270553Z VRB06KT 1 1/2SM -SN BKN020 OVC029 M06/M08 A2971 RMK AO2 SLP067 P0001 60001 T10561083 11033 21056 58016
Loading
Personal Weather Stations






























Interactive Weather Map New forecast layout! Learn more

10-Day Weather Forecast

Advertisements
Track Severe Weather on mobile